Wednesday, May 27, 2015, 3:43 PM EDT
Back to Local

KCXY, Harrisburg Capital City

Location: New Cumberland, PA, United States Lat: 40.217
Local Time: 3:43 PM EDT (19:43 GMT) Lon: -76.85
Time Zone: US/Eastern Elev: 347 ft

Show me the last for .
Show Decoded

2015-05-27 15:13 METAR KCXY 271913Z 24007KT 10SM -RA SCT043 BKN080 OVC110 22/19 A3012 RMK AO2 LTG
                 DSNT E P0002 T02220194 =
2015-05-27 14:36 METAR KCXY 271836Z 24008KT 3SM VCTS +RA BR FEW060 BKN070 OVC090 22/19 A3013 RMK
                 AO2 LTG DSNT NE-S TSE12B15E30 P0007 T02170194 =
2015-05-27 13:59 METAR KCXY 271759Z 26004KT 3SM R08/3000VP6000FT -TSRA SCT017 BKN038 OVC100 21/19
                 A3012 RMK AO2 LTG DSNT N AND NE AND SW P0000 T02060194 =
2015-05-27 13:56 METAR KCXY 271756Z VRB03KT 1/2SM R08/2800VP6000FT +TSRA FG BKN017 BKN038 OVC100
                 21/19 A3012 RMK AO2 PK WND 22032/1741 WSHFT 1728 LTG DSNT N AND NE AND SW RAB31
                 TSB36 SLP198 P0051 60051 T02060194 10300 20206 55005 =
2015-05-27 13:49 METAR KCXY 271749Z 21011G32KT 1/2SM R08/2400VP6000FT +TSRA FG BKN015 OVC038
                 21/19 A3012 RMK AO2 PK WND 22032/1741 WSHFT 1728 LTG DSNT N AND SW RAB31 TSB36
                 P0036 T02060189 =
2015-05-27 13:37 METAR KCXY 271737Z 25013G20KT 10SM -TSRA FEW014 OVC038 24/19 A3012 RMK AO2 LTG
                 DSNT SW RAB31 TSB36 P0000 T02390194 =
2015-05-27 13:23 METAR KCXY 271723Z 31008KT 10SM VCTS OVC039 26/19 A3011 RMK AO2 LTG DSNT N AND
                 NE AND SW T02610194 =
2015-05-27 12:56 METAR KCXY 271656Z 35006KT 10SM BKN037CB 26/19 A3011 RMK AO2 LTG DSNT SW-N
                 SLP195 CB NW MV E T02560194 =
2015-05-27 11:56 METAR KCXY 271556Z 20006KT 10SM FEW033 FEW048 FEW070 28/20 A3012 RMK AO2 SLP197
                 T02830200 =
2015-05-27 11:21 METAR KCXY 271521Z 21008KT 10SM SCT027 BKN033 27/19 A3013 RMK AO2 T02720194 =
2015-05-27 11:03 METAR KCXY 271503Z 10SM BKN026 27/20 A3014 RMK AO2 T02670200 =
2015-05-27 10:56 METAR KCXY 271456Z 23003KT 10SM SCT022 SCT110 27/19 A3013 RMK AO2 SLP202
                 T02670194 58002 =
2015-05-27 09:56 METAR KCXY 271356Z 17007KT 10SM SCT021 SCT110 26/20 A3013 RMK AO2 SLP203
                 T02610200 =
2015-05-27 09:41 METAR KCXY 271341Z 19006KT 10SM SCT021 SCT110 26/19 A3014 RMK AO2 T02560194 =
2015-05-27 08:56 METAR KCXY 271256Z 18006KT 10SM BKN016 24/19 A3015 RMK AO2 SLP206 T02440194 =
2015-05-27 07:56 METAR KCXY 271156Z 22004KT 10SM BKN017 23/19 A3014 RMK AO2 SLP204 T02330189
                 10233 20217 53010 =
2015-05-27 06:56 METAR KCXY 271056Z 00000KT 10SM FEW018 23/19 A3013 RMK AO2 SLP201 T02330189 =
2015-05-27 05:56 METAR KCXY 270956Z AUTO 16004KT 10SM BKN100 23/18 A3012 RMK AO2 SLP197 T02280183
                 =
2015-05-27 02:56 METAR KCXY 270656Z AUTO 18005KT 10SM FEW075 23/18 A3011 RMK AO2 SLP196 T02280183
                 =
2015-05-27 00:56 METAR KCXY 270456Z AUTO 16007KT 10SM CLR 23/18 A3013 RMK AO2 SLP200 T02330183
                 403060161 =
2015-05-26 23:56 METAR KCXY 270356Z AUTO 17009KT 10SM CLR 24/18 A3013 RMK AO2 SLP201 T02440183 =
2015-05-26 21:56 METAR KCXY 270156Z AUTO 14008KT 10SM FEW049 26/19 A3012 RMK AO2 SLP198 T02560189
                 =
2015-05-26 20:56 METAR KCXY 270056Z AUTO 16004KT 10SM CLR 26/18 A3011 RMK AO2 SLP196 T02560178 =
2015-05-26 19:56 METAR KCXY 262356Z 18004KT 10SM CLR 27/17 A3010 RMK AO2 SLP192 60000 T02720172
                 10306 20272 56008 =
2015-05-26 18:56 METAR KCXY 262256Z 21007KT 10SM CLR 28/17 A3011 RMK AO2 SLP194 T02830172 =
2015-05-26 16:56 METAR KCXY 262056Z 19006KT 10SM CLR 28/17 A3013 RMK AO2 SLP202 60000 T02830167
                 56014 =

Support USWX by starting your Amazon purchase here.